FAMM/MBD METAR and TAF weather

Enter ICAO airport designator
Station Type Date Time Source
FAMM METAR 2018/01/19 23:00 UTC NOAA

FAMM 192300Z AUTO 15010KT //// // ////// 23/11 Q1017


Station Type Date Time Source
FAMM Decoded METAR 2018/01/19 23:00 UTC NOAA

Mafikeng Intl. Ad, South Africa (FAMM) 25-47S 025-32E 1300M
Jan 19, 2018 - 06:00 PM EST / 2018.01.19 2300 UTC
Wind: from the SSE (150 degrees) at 12 MPH (10 KT):0
Temperature: 73 F (23 C)
Dew Point: 51 F (11 C)
Relative Humidity: 46%
Pressure (altimeter): 30.03 in. Hg (1017 hPa)
ob: FAMM 192300Z AUTO 15010KT //// // ////// 23/11 Q1017
cycle: 23

Station Type Date Time Source
FAMM TAF 2017/11/25 03:48 UTC NOAA

TAF TAF FAMM 250300Z 2503/2515 07007KT 9999 BKN030 PROB30
TEMPO 2504/2509 5000 TSRA FEW035CB
BECMG 2506/2508 36013KT PROB40
TEMPO 2512/2515 4000 TSRA FEW030CB TX31/2512Z TN15/2504Z


Example: see airport list